createdAt,value
2023-05-11T00:00:20.079Z,99998.19
2023-05-11T00:02:48.814Z,99982.34
2023-05-11T00:05:17.604Z,99983.59
2023-05-11T00:07:47.458Z,99988.41
2023-05-11T00:10:15.980Z,99989.88
2023-05-11T00:12:44.362Z,99987.06
2023-05-11T00:15:13.219Z,99986.59
2023-05-11T00:17:41.206Z,99992.38
2023-05-11T00:20:10.574Z,99993.63
2023-05-11T00:22:39.304Z,99993.16
2023-05-11T00:25:09.901Z,99994.41
2023-05-11T00:27:38.784Z,99998.56
2023-05-11T00:30:08.918Z,99991.91
2023-05-11T00:32:37.302Z,99993.47
2023-05-11T00:35:06.313Z,99996.19
2023-05-11T00:37:34.320Z,99998.91
2023-05-11T00:40:03.270Z,100001.69
2023-05-11T00:42:32.917Z,99994.16
2023-05-11T00:45:01.221Z,100006.91
2023-05-11T00:47:29.505Z,99995.59
2023-05-11T00:49:58.116Z,100002.34
2023-05-11T00:52:26.279Z,100006.50
2023-05-11T00:54:54.713Z,100002.69
2023-05-11T00:57:22.907Z,100001.88
2023-05-11T00:59:52.660Z,100001.69
2023-05-11T01:02:21.129Z,100002.63
2023-05-11T01:04:49.485Z,99999.41
2023-05-11T01:07:25.185Z,99994.13
2023-05-11T01:10:02.087Z,99999.00
2023-05-11T01:12:36.864Z,99995.91
2023-05-11T01:15:11.697Z,99991.94
2023-05-11T01:17:50.724Z,100003.19
2023-05-11T01:20:24.308Z,100007.03
2023-05-11T01:23:18.601Z,100007.44
2023-05-11T01:26:05.830Z,100009.16
2023-05-11T01:29:04.900Z,100008.63
2023-05-11T01:31:37.196Z,100006.59
2023-05-11T01:34:07.635Z,100004.88
2023-05-11T01:36:40.775Z,100008.41
2023-05-11T01:39:11.897Z,100010.97
2023-05-11T01:41:43.305Z,100001.81
2023-05-11T01:44:13.414Z,100003.41
2023-05-11T01:46:42.781Z,100006.56
2023-05-11T01:49:14.193Z,100002.31
2023-05-11T01:51:46.028Z,100006.38
2023-05-11T01:54:15.217Z,100000.47
2023-05-11T01:56:45.385Z,100008.16
2023-05-11T01:59:14.482Z,100010.50
2023-05-11T02:01:45.139Z,100005.09
2023-05-11T02:04:16.164Z,100002.03
2023-05-11T02:06:46.926Z,99994.44
2023-05-11T02:09:17.786Z,99993.78
2023-05-11T02:11:49.037Z,99994.09
2023-05-11T02:14:19.310Z,100002.81
2023-05-11T02:16:52.088Z,100002.69
2023-05-11T02:19:23.613Z,100003.53
2023-05-11T02:21:54.419Z,100005.63
2023-05-11T02:24:23.780Z,99997.94
2023-05-11T02:26:52.943Z,99996.94
2023-05-11T02:29:22.399Z,99993.91
2023-05-11T02:31:58.430Z,100004.13
2023-05-11T02:34:30.313Z,100005.91
2023-05-11T02:37:05.405Z,99993.78
2023-05-11T02:39:39.060Z,99993.78
2023-05-11T02:42:14.494Z,99999.78
2023-05-11T02:44:52.773Z,100000.22
2023-05-11T02:47:24.510Z,100000.22
2023-05-11T02:49:54.781Z,100005.22
2023-05-11T02:52:25.629Z,100001.59
2023-05-11T02:54:55.914Z,100014.25
2023-05-11T02:57:24.762Z,100014.63
2023-05-11T02:59:54.028Z,100017.81
2023-05-11T03:02:24.006Z,100014.09
2023-05-11T03:04:52.656Z,100025.81
2023-05-11T03:07:21.264Z,100019.09
2023-05-11T03:09:49.870Z,100026.19
2023-05-11T03:12:18.481Z,100009.28
2023-05-11T03:14:46.771Z,100015.31
2023-05-11T03:17:16.835Z,100014.34
2023-05-11T03:19:46.740Z,100017.53
2023-05-11T03:22:17.228Z,100022.69
2023-05-11T03:24:45.750Z,100021.09
2023-05-11T03:27:14.292Z,100021.50
2023-05-11T03:29:45.344Z,100021.84
2023-05-11T03:32:13.927Z,100016.44
2023-05-11T03:34:42.119Z,100025.84
2023-05-11T03:37:13.840Z,100029.72
2023-05-11T03:39:45.170Z,100026.41
2023-05-11T03:42:16.607Z,100027.53
2023-05-11T03:44:48.473Z,100029.09
2023-05-11T03:47:19.109Z,100026.59
2023-05-11T03:49:52.274Z,100031.31
2023-05-11T03:52:22.834Z,100027.13
2023-05-11T03:54:51.940Z,100027.53
2023-05-11T03:57:20.327Z,100032.66
2023-05-11T03:59:48.981Z,100027.53
2023-05-11T04:02:17.438Z,100028.75
2023-05-11T04:04:45.690Z,100033.34
2023-05-11T04:07:14.450Z,100030.16
2023-05-11T04:09:45.279Z,100034.16
2023-05-11T04:12:14.268Z,100035.38
2023-05-11T04:14:43.868Z,100034.19
2023-05-11T04:17:12.114Z,100037.84
2023-05-11T04:19:41.528Z,100036.16
2023-05-11T04:22:12.311Z,100034.97
2023-05-11T04:24:40.636Z,100036.41
2023-05-11T04:27:13.960Z,100037.16
2023-05-11T04:29:42.102Z,100041.84
2023-05-11T04:32:10.265Z,100042.09
2023-05-11T04:34:38.804Z,100046.97
2023-05-11T04:37:07.651Z,100051.94
2023-05-11T04:39:36.912Z,100049.63
2023-05-11T04:42:05.961Z,100050.88
2023-05-11T04:44:40.536Z,100051.41
2023-05-11T04:47:09.182Z,100046.38
2023-05-11T04:49:38.424Z,100038.72
2023-05-11T04:52:06.977Z,100046.06
2023-05-11T04:54:37.323Z,100042.78
2023-05-11T04:57:06.286Z,100037.84
2023-05-11T04:59:36.118Z,100039.56
2023-05-11T05:02:04.621Z,100046.75
2023-05-11T05:04:36.150Z,100042.13
2023-05-11T05:07:05.022Z,100052.88
2023-05-11T05:09:33.492Z,100054.84
2023-05-11T05:12:01.801Z,100051.94
2023-05-11T05:14:30.087Z,100054.69
2023-05-11T05:17:01.600Z,100050.38
2023-05-11T05:19:29.876Z,100056.72
2023-05-11T05:21:58.601Z,100056.69
2023-05-11T05:24:27.093Z,100060.50
2023-05-11T05:26:55.916Z,100063.00
2023-05-11T05:29:24.361Z,100058.22
2023-05-11T05:31:53.824Z,100063.13
2023-05-11T05:34:24.108Z,100059.75
2023-05-11T05:36:52.556Z,100062.25
2023-05-11T05:39:22.044Z,100059.09
2023-05-11T05:41:50.194Z,100068.00
2023-05-11T05:44:18.278Z,100066.84
2023-05-11T05:46:46.554Z,100069.94
2023-05-11T05:49:14.986Z,100070.63
2023-05-11T05:51:45.230Z,100078.16
2023-05-11T05:54:13.711Z,100081.19
2023-05-11T05:56:43.032Z,100078.16
2023-05-11T05:59:13.872Z,100071.31
2023-05-11T06:01:46.432Z,100068.16
2023-05-11T06:04:18.559Z,100078.31
2023-05-11T06:06:49.569Z,100073.66
2023-05-11T06:09:17.969Z,100078.97
2023-05-11T06:11:48.974Z,100074.81
2023-05-11T06:14:18.695Z,100076.25
2023-05-11T06:16:47.717Z,100074.72
2023-05-11T06:19:15.865Z,100080.75
2023-05-11T06:21:46.424Z,100078.53
2023-05-11T06:24:16.263Z,100074.91
2023-05-11T06:26:44.376Z,100076.78
2023-05-11T06:29:12.605Z,100071.56
2023-05-11T06:31:40.785Z,100075.59
2023-05-11T06:34:10.682Z,100076.44
2023-05-11T06:36:39.223Z,100066.25
2023-05-11T06:39:08.257Z,100077.81
2023-05-11T06:41:39.120Z,100068.47
2023-05-11T06:44:07.200Z,100070.84
2023-05-11T06:46:35.764Z,100072.06
2023-05-11T06:49:03.954Z,100088.88
2023-05-11T06:51:32.818Z,100081.94
2023-05-11T06:54:01.092Z,100073.44
2023-05-11T06:56:29.460Z,100082.00
2023-05-11T06:59:00.054Z,100077.56
2023-05-11T07:01:28.406Z,100070.19
2023-05-11T07:03:56.952Z,100070.38
2023-05-11T07:06:25.158Z,100066.50
2023-05-11T07:08:53.325Z,100067.75
2023-05-11T07:11:22.136Z,100067.41
2023-05-11T07:13:50.244Z,100069.44
2023-05-11T07:16:21.116Z,100059.84
2023-05-11T07:18:51.634Z,100063.84
2023-05-11T07:21:22.586Z,100078.75
2023-05-11T07:23:50.996Z,100073.63
2023-05-11T07:26:19.264Z,100069.28
2023-05-11T07:28:47.294Z,100072.00
2023-05-11T07:31:16.294Z,100072.34
2023-05-11T07:33:46.057Z,100067.22
2023-05-11T07:36:14.948Z,100081.19
2023-05-11T07:38:43.857Z,100072.06
2023-05-11T07:41:12.806Z,100076.69
2023-05-11T07:43:42.213Z,100073.13
2023-05-11T07:46:10.473Z,100064.16
2023-05-11T07:48:38.997Z,100077.97
2023-05-11T07:51:09.654Z,100059.59
2023-05-11T07:53:37.801Z,100058.91
2023-05-11T07:56:07.152Z,100056.91
2023-05-11T07:58:35.528Z,100064.94
2023-05-11T08:01:03.950Z,100061.28
2023-05-11T08:03:32.181Z,100062.16
2023-05-11T08:06:00.862Z,100066.16
2023-05-11T08:08:31.860Z,100058.84
2023-05-11T08:11:00.468Z,100072.13
2023-05-11T08:13:30.673Z,100061.16
2023-05-11T08:15:59.122Z,100055.00
2023-05-11T08:18:29.361Z,100059.94
2023-05-11T08:20:58.565Z,100068.34
2023-05-11T08:23:26.965Z,100074.00
2023-05-11T08:25:58.278Z,100072.50
2023-05-11T08:28:26.868Z,100062.13
2023-05-11T08:30:57.114Z,100068.00
2023-05-11T08:35:59.021Z,100063.78
2023-05-11T08:38:27.585Z,100064.63
2023-05-11T08:40:58.296Z,100052.78
2023-05-11T08:43:29.436Z,100055.94
2023-05-11T08:46:01.934Z,100064.03
2023-05-11T08:48:31.852Z,100062.44
2023-05-11T08:51:01.731Z,100060.22
2023-05-11T08:53:30.296Z,100067.59
2023-05-11T08:56:01.327Z,100063.72
2023-05-11T08:58:29.827Z,100049.97
2023-05-11T09:01:00.450Z,100053.00
2023-05-11T09:03:31.096Z,100043.69
2023-05-11T09:06:01.670Z,100047.97
2023-05-11T09:08:32.873Z,100051.06
2023-05-11T09:11:03.909Z,100053.50
2023-05-11T09:13:33.529Z,100058.34
2023-05-11T09:16:01.725Z,100051.63
2023-05-11T09:18:30.174Z,100044.75
2023-05-11T09:21:02.199Z,100043.41
2023-05-11T09:23:30.705Z,100037.06
2023-05-11T09:25:58.949Z,100034.88
2023-05-11T09:31:03.749Z,100025.25
2023-05-11T09:33:32.531Z,100031.66
2023-05-11T09:36:00.670Z,100028.41
2023-05-11T09:38:28.950Z,100018.91
2023-05-11T09:40:59.086Z,100018.38
2023-05-11T09:43:31.957Z,100009.91
2023-05-11T09:46:07.867Z,100016.03
2023-05-11T09:48:36.271Z,100023.84
2023-05-11T09:51:07.004Z,100018.56
2023-05-11T09:53:47.045Z,100013.19
2023-05-11T09:56:16.066Z,100008.81
2023-05-11T09:58:51.203Z,100004.94
2023-05-11T10:01:30.890Z,100003.16
2023-05-11T10:04:17.934Z,100005.50
2023-05-11T10:06:51.350Z,100005.47
2023-05-11T10:09:25.199Z,99999.97
2023-05-11T10:11:56.752Z,100000.22
2023-05-11T10:14:29.709Z,100002.66
2023-05-11T10:17:00.282Z,99993.84
2023-05-11T10:19:29.779Z,99987.94
2023-05-11T10:21:58.771Z,99986.16
2023-05-11T10:24:28.527Z,99988.84
2023-05-11T10:26:59.167Z,99980.16
2023-05-11T10:29:30.225Z,99975.34
2023-05-11T10:32:00.274Z,99986.50
2023-05-11T10:34:29.970Z,99979.69
2023-05-11T10:37:02.221Z,99973.94
2023-05-11T10:39:32.353Z,99973.41
2023-05-11T10:42:20.612Z,99986.44
2023-05-11T10:45:21.686Z,99980.53
2023-05-11T10:48:31.458Z,99974.09
2023-05-11T10:51:15.172Z,99968.09
2023-05-11T10:54:07.647Z,99971.00
2023-05-11T10:56:51.587Z,99965.84
2023-05-11T10:59:51.864Z,99955.72
2023-05-11T11:02:23.331Z,99957.78
2023-05-11T11:04:53.859Z,99958.88
2023-05-11T11:07:21.952Z,99960.63
2023-05-11T11:09:57.821Z,99962.09
2023-05-11T11:12:27.807Z,99956.88
2023-05-11T11:14:59.116Z,99955.91
2023-05-11T11:17:32.457Z,99958.91
2023-05-11T11:20:02.834Z,99950.78
2023-05-11T11:22:48.117Z,99947.59
2023-05-11T11:25:38.006Z,99933.31
2023-05-11T11:28:06.682Z,99943.81
2023-05-11T11:30:34.942Z,99936.91
2023-05-11T11:33:39.689Z,99947.63
2023-05-11T11:36:09.690Z,99932.81
2023-05-11T11:39:01.305Z,99945.78
2023-05-11T11:41:29.924Z,99936.28
2023-05-11T11:43:58.456Z,99930.50
2023-05-11T11:46:32.181Z,99927.94
2023-05-11T11:49:10.663Z,99926.72
2023-05-11T11:51:41.538Z,99925.69
2023-05-11T11:54:11.186Z,99913.50
2023-05-11T11:56:48.288Z,99910.00
2023-05-11T11:59:17.557Z,99905.19
2023-05-11T12:01:47.477Z,99907.19
2023-05-11T12:04:38.445Z,99894.63
2023-05-11T12:07:12.322Z,99898.13
2023-05-11T12:09:42.820Z,99900.06
2023-05-11T12:12:12.426Z,99890.22
2023-05-11T12:14:49.522Z,99894.50
2023-05-11T12:17:25.582Z,99893.53
2023-05-11T12:19:54.206Z,99882.56
2023-05-11T12:22:28.304Z,99882.25
2023-05-11T12:25:00.401Z,99869.28
2023-05-11T12:27:30.693Z,99875.25
2023-05-11T12:29:59.910Z,99880.34
2023-05-11T12:32:29.652Z,99864.34
2023-05-11T12:35:04.672Z,99862.25
2023-05-11T12:37:36.613Z,99858.84
2023-05-11T12:40:06.015Z,99856.59
2023-05-11T12:42:35.561Z,99860.94
2023-05-11T12:45:04.500Z,99865.22
2023-05-11T12:47:33.669Z,99859.66
2023-05-11T12:50:02.583Z,99843.59
2023-05-11T12:52:31.410Z,99838.53
2023-05-11T12:55:01.743Z,99827.59
2023-05-11T12:57:32.314Z,99837.41
2023-05-11T13:00:14.295Z,99838.22
2023-05-11T13:02:50.579Z,99833.50
2023-05-11T13:05:21.887Z,99825.97
2023-05-11T13:08:00.336Z,99838.03
2023-05-11T13:10:31.280Z,99832.34
2023-05-11T13:13:00.126Z,99829.97
2023-05-11T13:15:29.880Z,99815.72
2023-05-11T13:18:00.439Z,99823.97
2023-05-11T13:20:30.552Z,99816.06
2023-05-11T13:23:08.339Z,99811.00
2023-05-11T13:25:56.226Z,99817.81
2023-05-11T13:28:26.613Z,99822.16
2023-05-11T13:31:02.321Z,99817.84
2023-05-11T13:33:31.350Z,99813.06
2023-05-11T13:36:00.670Z,99806.75
2023-05-11T13:38:29.233Z,99806.72
2023-05-11T13:40:59.130Z,99801.41
2023-05-11T13:43:28.713Z,99804.91
2023-05-11T13:45:59.239Z,99802.16
2023-05-11T13:48:27.672Z,99795.84
2023-05-11T13:50:55.823Z,99793.03
2023-05-11T13:53:24.208Z,99809.56
2023-05-11T13:55:53.739Z,99802.56
2023-05-11T13:58:23.996Z,99792.00
2023-05-11T14:01:06.433Z,99799.00
2023-05-11T14:03:36.258Z,99799.41
2023-05-11T14:06:04.820Z,99804.09
2023-05-11T14:08:33.510Z,99792.34
2023-05-11T14:11:04.606Z,99797.44
2023-05-11T14:13:34.574Z,99798.25
2023-05-11T14:16:02.842Z,99797.88
2023-05-11T14:18:31.400Z,99793.16
2023-05-11T14:21:00.846Z,99793.16
2023-05-11T14:23:29.253Z,99795.50
2023-05-11T14:25:58.393Z,99797.44
2023-05-11T14:28:26.838Z,99795.88
2023-05-11T14:30:58.776Z,99795.50
2023-05-11T14:33:27.141Z,99800.56
2023-05-11T14:35:56.764Z,99790.38
2023-05-11T14:38:25.758Z,99792.75
2023-05-11T14:40:54.892Z,99798.63
2023-05-11T14:43:24.379Z,99799.81
2023-05-11T14:45:53.110Z,99802.16
2023-05-11T14:48:24.468Z,99795.13
2023-05-11T14:50:52.721Z,99791.16
2023-05-11T14:53:21.057Z,99792.75
2023-05-11T14:55:49.462Z,99795.13
2023-05-11T14:58:17.516Z,99798.22
2023-05-11T15:00:46.090Z,99799.81
2023-05-11T15:03:14.334Z,99797.81
2023-05-11T15:05:44.104Z,99795.84
2023-05-11T15:08:25.815Z,99790.69
2023-05-11T15:10:57.413Z,99788.28
2023-05-11T15:13:25.723Z,99789.50
2023-05-11T15:15:53.943Z,99786.44
2023-05-11T15:18:22.298Z,99787.13
2023-05-11T15:20:52.510Z,99781.63
2023-05-11T15:23:20.727Z,99780.09
2023-05-11T15:25:49.287Z,99775.72
2023-05-11T15:28:17.624Z,99786.28
2023-05-11T15:30:45.915Z,99785.50
2023-05-11T15:33:14.190Z,99788.59
2023-05-11T15:35:42.354Z,99786.28
2023-05-11T15:38:12.259Z,99773.03
2023-05-11T15:40:40.549Z,99772.28
2023-05-11T15:43:09.466Z,99778.59
2023-05-11T15:45:37.795Z,99772.28
2023-05-11T15:48:07.906Z,99775.41
2023-05-11T15:50:36.210Z,99780.44
2023-05-11T15:53:04.322Z,99778.44
2023-05-11T15:55:34.590Z,99775.63
2023-05-11T15:58:02.829Z,99775.97
2023-05-11T16:00:30.957Z,99780.97
2023-05-11T16:02:59.170Z,99776.69
2023-05-11T16:05:28.408Z,99786.38
2023-05-11T16:07:56.667Z,99785.19
2023-05-11T16:10:24.950Z,99776.56
2023-05-11T16:12:56.048Z,99779.66
2023-05-11T16:15:27.102Z,99771.44
2023-05-11T16:17:55.262Z,99778.50
2023-05-11T16:20:24.164Z,99775.25
2023-05-11T16:22:53.134Z,99788.84
2023-05-11T16:25:21.289Z,99782.59
2023-05-11T16:27:49.477Z,99790.03
2023-05-11T16:30:24.823Z,99788.03
2023-05-11T16:32:55.601Z,99794.16
2023-05-11T16:35:24.320Z,99782.38
2023-05-11T16:37:53.159Z,99788.53
2023-05-11T16:40:23.042Z,99796.34
2023-05-11T16:42:51.420Z,99793.97
2023-05-11T16:45:21.868Z,99795.59
2023-05-11T16:47:49.998Z,99803.75
2023-05-11T16:50:19.034Z,99810.22
2023-05-11T16:52:47.315Z,99808.69
2023-05-11T16:55:17.101Z,99816.41
2023-05-11T16:57:45.763Z,99811.63
2023-05-11T17:00:15.785Z,99816.97
2023-05-11T17:02:46.524Z,99822.72
2023-05-11T17:05:18.950Z,99827.06
2023-05-11T17:07:47.920Z,99826.22
2023-05-11T17:10:16.410Z,99834.78
2023-05-11T17:12:45.098Z,99830.75
2023-05-11T17:15:14.501Z,99826.66
2023-05-11T17:17:43.004Z,99833.72
2023-05-11T17:20:14.824Z,99839.94
2023-05-11T17:22:44.482Z,99840.69
2023-05-11T17:25:12.777Z,99846.03
2023-05-11T17:27:41.493Z,99839.22
2023-05-11T17:30:11.886Z,99838.44
2023-05-11T17:32:40.579Z,99842.59
2023-05-11T17:35:13.207Z,99847.22
2023-05-11T17:37:42.082Z,99848.28
2023-05-11T17:40:11.974Z,99860.75
2023-05-11T17:42:40.532Z,99864.25
2023-05-11T17:45:10.288Z,99865.00
2023-05-11T17:47:38.566Z,99861.72
2023-05-11T17:50:08.426Z,99856.03
2023-05-11T17:52:38.673Z,99862.34
2023-05-11T17:55:08.768Z,99868.28
2023-05-11T17:57:37.084Z,99867.00
2023-05-11T18:00:06.436Z,99864.91
2023-05-11T18:02:34.828Z,99873.44
2023-05-11T18:05:03.019Z,99871.06
2023-05-11T18:07:31.836Z,99870.28
2023-05-11T18:10:01.667Z,99876.94
2023-05-11T18:12:30.528Z,99888.50
2023-05-11T18:14:58.809Z,99891.09
2023-05-11T18:17:27.300Z,99882.75
2023-05-11T18:19:56.245Z,99885.47
2023-05-11T18:22:24.389Z,99895.94
2023-05-11T18:24:53.644Z,99905.56
2023-05-11T18:27:23.300Z,99902.13
2023-05-11T18:29:51.721Z,99915.13
2023-05-11T18:32:20.539Z,99906.53
2023-05-11T18:34:48.851Z,99918.22
2023-05-11T18:37:17.500Z,99925.19
2023-05-11T18:39:46.268Z,99929.63
2023-05-11T18:42:14.479Z,99927.19
2023-05-11T18:44:44.078Z,99923.53
2023-05-11T18:47:12.739Z,99929.75
2023-05-11T18:49:42.167Z,99928.13
2023-05-11T18:52:10.261Z,99939.50
2023-05-11T18:54:38.596Z,99941.53
2023-05-11T18:57:08.293Z,99945.16
2023-05-11T18:59:37.819Z,99946.72
2023-05-11T19:02:07.978Z,99948.03
2023-05-11T19:04:36.310Z,99947.19
2023-05-11T19:07:04.531Z,99957.91
2023-05-11T19:09:32.881Z,99963.34
2023-05-11T19:12:01.043Z,99948.16
2023-05-11T19:14:30.590Z,99954.50
2023-05-11T19:17:01.286Z,99972.78
2023-05-11T19:19:31.952Z,99972.06
2023-05-11T19:22:00.203Z,99969.28
2023-05-11T19:24:28.510Z,99971.34
2023-05-11T19:27:06.654Z,99969.28
2023-05-11T19:29:36.307Z,99976.28
2023-05-11T19:32:04.752Z,99975.41
2023-05-11T19:34:34.816Z,99971.72
2023-05-11T19:37:07.669Z,99977.22
2023-05-11T19:39:35.859Z,99978.63
2023-05-11T19:42:03.938Z,99979.88
2023-05-11T19:44:33.244Z,99984.66
2023-05-11T19:47:01.645Z,99978.56
2023-05-11T19:49:29.810Z,99977.00
2023-05-11T19:51:59.529Z,99976.38
2023-05-11T19:54:27.787Z,99976.94
2023-05-11T19:56:57.147Z,99982.94
2023-05-11T19:59:27.770Z,99981.63
2023-05-11T20:01:59.241Z,99985.16
2023-05-11T20:04:28.238Z,99985.16
2023-05-11T20:06:56.890Z,99985.56
2023-05-11T20:09:27.441Z,99989.59
2023-05-11T20:11:55.934Z,99986.97
2023-05-11T20:14:24.490Z,99992.34
2023-05-11T20:16:52.601Z,99993.13
2023-05-11T20:19:21.676Z,99993.72
2023-05-11T20:21:50.090Z,99992.81
2023-05-11T20:24:18.301Z,99993.03
2023-05-11T20:26:48.012Z,99993.72
2023-05-11T20:29:16.908Z,99991.47
2023-05-11T20:31:46.629Z,99984.75
2023-05-11T20:34:15.239Z,99992.56
2023-05-11T20:36:43.429Z,99987.53
2023-05-11T20:39:11.554Z,99988.19
2023-05-11T20:41:39.770Z,99996.00
2023-05-11T20:44:13.838Z,100004.28
2023-05-11T20:46:42.485Z,100008.41
2023-05-11T20:49:13.758Z,99997.97
2023-05-11T20:51:42.442Z,99999.47
2023-05-11T20:54:10.675Z,100002.00
2023-05-11T20:56:38.816Z,99998.63
2023-05-11T20:59:08.349Z,99999.31
2023-05-11T21:01:36.574Z,100008.34
2023-05-11T21:04:06.715Z,100005.53
2023-05-11T21:06:34.935Z,100000.88
2023-05-11T21:09:03.993Z,99996.50
2023-05-11T21:11:32.689Z,99996.72
2023-05-11T21:14:00.914Z,100001.72
2023-05-11T21:16:30.748Z,100005.31
2023-05-11T21:18:59.703Z,100003.41
2023-05-11T21:21:27.894Z,99999.78
2023-05-11T21:23:56.078Z,100004.06
2023-05-11T21:26:25.152Z,99999.38
2023-05-11T21:28:53.293Z,100001.31
2023-05-11T21:31:22.467Z,100003.16
2023-05-11T21:33:52.088Z,99998.16
2023-05-11T21:36:20.246Z,100000.28
2023-05-11T21:38:50.405Z,100001.78
2023-05-11T21:41:21.697Z,100000.66
2023-05-11T21:43:50.714Z,100012.94
2023-05-11T21:46:18.966Z,100003.91
2023-05-11T21:48:47.553Z,99999.97
2023-05-11T21:51:17.302Z,100013.94
2023-05-11T21:53:45.448Z,100003.66
2023-05-11T21:56:16.203Z,100008.31
2023-05-11T21:58:44.447Z,100005.69
2023-05-11T22:01:12.691Z,100007.41
2023-05-11T22:03:41.212Z,99990.69
2023-05-11T22:06:09.468Z,100008.16
2023-05-11T22:08:39.066Z,100013.50
2023-05-11T22:11:07.201Z,100011.22
2023-05-11T22:13:38.985Z,100010.53
2023-05-11T22:16:08.427Z,100006.59
2023-05-11T22:18:36.911Z,100006.69
2023-05-11T22:21:06.551Z,100006.22
2023-05-11T22:23:35.835Z,100004.59
2023-05-11T22:26:06.266Z,100001.47
2023-05-11T22:28:34.743Z,100003.72
2023-05-11T22:31:02.883Z,100011.28
2023-05-11T22:33:31.032Z,100002.03
2023-05-11T22:35:59.107Z,100003.16
2023-05-11T22:38:27.607Z,100003.50
2023-05-11T22:40:56.086Z,100002.25
2023-05-11T22:43:25.584Z,100000.81
2023-05-11T22:45:53.862Z,99997.00
2023-05-11T22:48:22.408Z,99992.25
2023-05-11T22:50:50.700Z,99988.75
2023-05-11T22:53:20.038Z,99989.53
2023-05-11T22:55:49.118Z,99988.41
2023-05-11T22:58:17.534Z,99987.78
2023-05-11T23:00:48.405Z,99996.78
2023-05-11T23:03:16.940Z,99989.34
2023-05-11T23:05:45.512Z,99991.38
2023-05-11T23:08:14.036Z,99995.22
2023-05-11T23:10:42.161Z,99993.88
2023-05-11T23:13:11.795Z,99995.22
2023-05-11T23:15:40.167Z,99990.69
2023-05-11T23:18:10.117Z,99999.63
2023-05-11T23:20:39.024Z,99987.13
2023-05-11T23:23:07.193Z,99997.03
2023-05-11T23:25:35.589Z,99998.16
2023-05-11T23:28:03.747Z,99993.88
2023-05-11T23:30:31.885Z,99989.13
2023-05-11T23:33:00.459Z,99995.53
2023-05-11T23:35:30.581Z,99994.44
2023-05-11T23:37:58.655Z,99992.84
2023-05-11T23:40:28.895Z,100004.81
2023-05-11T23:42:57.482Z,100001.09
2023-05-11T23:45:27.801Z,99996.03
2023-05-11T23:47:56.799Z,99994.13
2023-05-11T23:50:25.215Z,99998.16
2023-05-11T23:52:54.736Z,99997.97
2023-05-11T23:55:24.636Z,100000.22
2023-05-11T23:57:53.239Z,99992.63
